Time;durP1;ratioP1;P1;durP2;ratioP2;P2;SDS_P1;SDS_P2;PMS_P1;PMS_P2;Temp;Humidity;BMP_temperature;BMP_pressure;BME280_temperature;BME280_humidity;BME280_pressure;Samples;Min_cycle;Max_cycle;Signal;HPM_P1;HPM_P2
2023/03/09 00:01:34;;;;;;;11.80;10.60;;;5.10;75.60;;;7.84;53.26;99337.28;5119886;28;20204;-53
2023/03/09 00:04:01;;;;;;;13.33;10.90;;;5.10;75.50;;;7.79;53.55;99340.50;5117644;28;20282;-52
2023/03/09 00:06:29;;;;;;;12.83;11.03;;;5.10;75.90;;;7.75;53.31;99336.63;5104669;28;20199;-52
2023/03/09 00:08:56;;;;;;;11.97;10.23;;;5.00;75.90;;;7.76;53.97;99343.47;5097929;28;20190;-52
2023/03/09 00:11:24;;;;;;;12.03;9.63;;;5.00;76.20;;;7.76;53.57;99340.88;5097953;28;20194;-53
2023/03/09 00:13:52;;;;;;;13.63;10.63;;;5.00;76.30;;;7.72;53.81;99329.16;5121190;27;20278;-54
2023/03/09 00:16:23;;;;;;;14.63;11.90;;;5.00;76.30;;;7.63;54.78;99327.66;5126290;27;20215;-53
2023/03/09 00:18:51;;;;;;;14.00;11.20;;;5.00;76.70;;;7.64;54.23;99331.91;5118407;28;20178;-53
2023/03/09 00:21:35;;;;;;;13.20;11.73;;;4.90;76.60;;;7.65;54.32;99328.31;5118248;28;20284;-50
2023/03/09 00:24:05;;;;;;;13.77;10.77;;;4.90;77.10;;;7.65;54.46;99333.53;5117875;28;20204;-54
2023/03/09 00:26:34;;;;;;;12.57;11.07;;;4.90;77.30;;;7.67;54.88;99331.53;5118816;28;20208;-53
2023/03/09 00:29:03;;;;;;;12.57;11.27;;;4.90;77.50;;;7.68;54.88;99327.91;5118025;28;20184;-54
2023/03/09 00:31:31;;;;;;;13.90;10.40;;;4.90;77.50;;;7.69;54.72;99328.72;5117963;28;20665;-55
2023/03/09 00:33:58;;;;;;;11.73;9.60;;;4.90;77.60;;;7.70;54.70;99336.38;5117119;28;20234;-53
2023/03/09 00:36:25;;;;;;;12.60;10.10;;;4.90;77.90;;;7.70;54.93;99331.13;5105913;28;20185;-52
2023/03/09 00:38:54;;;;;;;12.90;10.43;;;4.90;77.90;;;7.64;54.70;99324.06;5097451;28;20191;-54
2023/03/09 00:41:24;;;;;;;13.10;11.27;;;4.90;77.70;;;7.56;55.30;99324.19;5097759;28;20200;-53
2023/03/09 00:43:51;;;;;;;14.27;11.27;;;4.90;77.80;;;7.50;55.18;99335.44;5097431;28;20206;-55
2023/03/09 00:46:19;;;;;;;12.13;10.73;;;4.90;77.90;;;7.46;55.85;99328.97;5097728;28;20200;-53
2023/03/09 00:48:47;;;;;;;13.77;10.57;;;4.80;78.40;;;7.43;55.58;99334.56;5097042;28;20192;-54
2023/03/09 00:51:14;;;;;;;12.87;9.90;;;4.80;78.60;;;7.38;55.90;99336.94;5097023;28;20190;-53
2023/03/09 00:53:41;;;;;;;12.97;10.33;;;4.80;78.50;;;7.31;55.77;99330.84;5096557;28;20221;-51
2023/03/09 00:56:14;;;;;;;13.47;11.30;;;4.70;78.40;;;7.22;56.20;99326.75;5105647;28;20190;-52
2023/03/09 00:58:41;;;;;;;12.40;9.97;;;4.70;78.70;;;7.20;56.17;99328.75;5116447;28;20196;-54
2023/03/09 01:01:12;;;;;;;12.13;10.30;;;4.60;78.70;;;7.18;56.29;99320.28;5117947;28;20222;-53
2023/03/09 01:03:41;;;;;;;13.07;10.67;;;4.60;79.20;;;7.13;56.60;99322.63;5117311;28;20235;-53
2023/03/09 01:06:08;;;;;;;12.90;9.93;;;4.60;79.20;;;7.10;56.50;99329.06;5107253;28;20213;-52
2023/03/09 01:08:36;;;;;;;12.27;10.40;;;4.50;79.40;;;7.11;56.62;99335.06;5097018;28;20247;-56
2023/03/09 01:11:06;;;;;;;14.43;10.57;;;4.50;80.00;;;7.13;57.03;99338.34;5097074;28;20249;-52
2023/03/09 01:13:34;;;;;;;11.67;9.70;;;4.50;80.00;;;7.13;56.91;99330.47;5113541;27;20209;-52
2023/03/09 01:16:02;;;;;;;10.50;9.33;;;4.50;80.10;;;7.16;57.31;99319.63;5123926;27;20208;-51
2023/03/09 01:18:29;;;;;;;11.53;9.43;;;4.50;80.00;;;7.18;57.24;99320.28;5096788;28;20616;-53
2023/03/09 01:20:57;;;;;;;11.20;8.87;;;4.50;80.00;;;7.23;56.83;99323.94;5096878;28;20186;-53
2023/03/09 01:23:25;;;;;;;11.40;9.57;;;4.50;80.20;;;7.25;57.16;99321.13;5097221;28;20308;-52
2023/03/09 01:25:52;;;;;;;10.97;8.47;;;4.60;80.30;;;7.30;56.50;99323.97;5104484;28;20190;-52
2023/03/09 01:28:19;;;;;;;10.63;8.67;;;4.60;80.20;;;7.27;56.54;99314.69;5122223;27;20209;-53
2023/03/09 01:30:46;;;;;;;10.97;8.93;;;4.60;79.60;;;7.28;56.63;99316.31;5120940;27;20188;-52
2023/03/09 01:33:13;;;;;;;9.47;8.10;;;4.60;79.80;;;7.24;56.22;99309.03;5132533;27;20213;-52
2023/03/09 01:35:40;;;;;;;11.73;9.10;;;4.60;79.50;;;7.19;56.14;99312.22;5112346;27;20195;-53
2023/03/09 01:38:09;;;;;;;9.20;7.83;;;4.60;79.40;;;7.18;56.38;99315.03;5100230;28;20186;-52
2023/03/09 01:40:36;;;;;;;10.60;8.27;;;4.60;79.40;;;7.18;56.77;99309.81;5096466;28;20263;-55
2023/03/09 01:43:34;;;;;;;9.67;8.23;;;4.60;79.50;;;7.13;56.55;99301.72;5096312;28;20213;-51
2023/03/09 01:46:47;;;;;;;10.77;8.13;;;4.50;79.70;;;7.10;56.75;99305.50;5102864;28;20280;-53
2023/03/09 01:49:28;;;;;;;10.50;7.90;;;4.50;79.90;;;7.16;57.11;99314.38;5116744;28;20190;-55
2023/03/09 01:52:05;;;;;;;8.83;6.77;;;4.50;80.20;;;7.16;57.06;99317.81;5116945;27;20273;-53
2023/03/09 01:54:41;;;;;;;9.40;7.57;;;4.50;79.90;;;7.16;57.04;99314.38;5116837;28;20742;-52
2023/03/09 01:57:17;;;;;;;10.13;8.67;;;4.50;79.90;;;7.16;56.71;99306.53;5100199;28;20207;-51
2023/03/09 01:59:48;;;;;;;9.80;8.07;;;4.50;80.10;;;7.15;56.46;99308.38;5096194;28;20183;-55
2023/03/09 02:02:16;;;;;;;9.03;7.63;;;4.50;80.20;;;7.09;56.69;99310.91;5095595;28;20178;-53
2023/03/09 02:04:48;;;;;;;10.70;8.40;;;4.50;80.20;;;7.01;57.33;99305.81;5095452;28;20555;-55
2023/03/09 02:07:20;;;;;;;9.27;7.67;;;4.50;80.20;;;6.98;57.46;99308.81;5111454;28;20200;-53
2023/03/09 02:09:53;;;;;;;9.30;8.03;;;4.50;80.20;;;6.92;57.91;99309.56;5115844;28;20179;-52
2023/03/09 02:12:22;;;;;;;9.97;7.47;;;4.40;80.30;;;6.92;57.85;99306.94;5115537;28;20676;-50
2023/03/09 02:14:50;;;;;;;9.13;7.80;;;4.40;80.60;;;6.92;57.81;99312.19;5135790;27;20207;-51
2023/03/09 02:17:18;;;;;;;10.13;7.27;;;4.40;81.00;;;6.97;57.88;99315.00;5118932;27;20199;-51
2023/03/09 02:20:04;;;;;;;9.47;7.57;;;4.40;81.50;;;7.00;57.39;99318.09;5116039;28;20185;-53
2023/03/09 02:22:34;;;;;;;8.80;7.80;;;4.40;81.20;;;7.01;57.15;99317.09;5115532;28;20234;-55
2023/03/09 02:25:17;;;;;;;10.07;7.87;;;4.40;81.00;;;7.01;57.45;99313.66;5116086;28;20654;-52
2023/03/09 02:27:46;;;;;;;11.27;8.30;;;4.40;81.00;;;7.03;57.25;99314.28;5095626;28;20184;-54
2023/03/09 02:30:14;;;;;;;9.83;8.33;;;4.40;81.10;;;7.06;57.05;99311.31;5094639;28;20220;-54
2023/03/09 02:32:41;;;;;;;10.93;8.57;;;4.40;81.10;;;7.08;57.33;99311.94;5105949;28;20248;-55
2023/03/09 02:35:09;;;;;;;9.37;8.07;;;4.40;80.90;;;7.11;57.34;99311.53;5115543;28;20193;-55
2023/03/09 02:37:39;;;;;;;10.97;7.93;;;4.40;81.20;;;7.06;57.07;99313.91;5095946;28;20226;-53
2023/03/09 02:40:13;;;;;;;9.37;7.63;;;4.40;81.10;;;7.06;57.85;99316.53;5095814;28;20175;-52
2023/03/09 02:42:43;;;;;;;11.93;8.87;;;4.40;80.90;;;7.03;57.53;99309.88;5094703;28;20181;-53
2023/03/09 02:45:15;;;;;;;10.30;8.10;;;4.40;80.90;;;6.99;57.38;99313.06;5095246;28;20187;-52
2023/03/09 02:47:43;;;;;;;10.70;8.60;;;4.40;81.00;;;7.00;57.79;99312.84;5114309;28;20185;-53
2023/03/09 02:50:10;;;;;;;11.23;9.00;;;4.40;81.00;;;7.00;57.49;99304.19;5115254;28;20193;-54
2023/03/09 02:52:37;;;;;;;9.40;8.07;;;4.40;81.00;;;6.95;57.62;99317.81;5115157;28;20189;-52
2023/03/09 02:55:07;;;;;;;11.37;8.13;;;4.40;81.00;;;6.95;57.99;99323.06;5115263;28;20192;-54
2023/03/09 02:57:34;;;;;;;10.10;7.67;;;4.40;81.40;;;6.97;58.09;99325.47;5096476;28;20201;-53
2023/03/09 03:00:03;;;;;;;9.43;8.10;;;4.30;81.50;;;7.00;57.68;99322.50;5094664;28;20192;-53
2023/03/09 03:02:31;;;;;;;10.80;9.20;;;4.40;81.80;;;7.04;57.71;99332.41;5093971;28;20195;-53
2023/03/09 03:04:58;;;;;;;9.70;8.57;;;4.40;81.90;;;7.08;58.17;99336.28;5094684;28;20594;-52
2023/03/09 03:07:25;;;;;;;10.57;8.40;;;4.40;81.80;;;7.09;57.90;99335.25;5113122;28;20213;-53
2023/03/09 03:09:52;;;;;;;13.37;9.97;;;4.40;81.60;;;7.05;57.21;99330.59;5114970;28;20188;-54
2023/03/09 03:12:19;;;;;;;10.30;8.60;;;4.40;81.20;;;7.01;57.37;99324.13;5114515;28;20656;-53
2023/03/09 03:14:46;;;;;;;11.17;9.10;;;4.40;80.90;;;6.97;57.54;99333.31;5133652;27;20214;-55
2023/03/09 03:17:13;;;;;;;11.57;9.77;;;4.40;81.10;;;6.95;58.04;99343.97;5115102;27;20213;-57
2023/03/09 03:19:41;;;;;;;11.33;9.40;;;4.30;81.10;;;6.95;58.03;99351.00;5114346;28;20187;-51
2023/03/09 03:22:08;;;;;;;11.80;8.87;;;4.30;81.30;;;6.97;57.88;99355.06;5114033;28;20540;-52
2023/03/09 03:24:36;;;;;;;10.17;8.53;;;4.30;81.60;;;7.01;57.62;99355.50;5114376;28;20209;-54
2023/03/09 03:27:03;;;;;;;11.27;8.87;;;4.30;81.80;;;7.05;57.36;99357.56;5095807;28;20629;-54
2023/03/09 03:29:31;;;;;;;11.63;8.87;;;4.30;81.90;;;7.09;57.93;99368.47;5110271;28;20690;-54
2023/03/09 03:31:58;;;;;;;10.47;9.30;;;4.40;82.10;;;7.12;57.98;99370.72;5114660;28;20197;-52
2023/03/09 03:34:25;;;;;;;11.10;8.30;;;4.30;81.80;;;7.14;57.87;99372.16;5114030;28;20239;-55
2023/03/09 03:36:53;;;;;;;11.17;9.23;;;4.40;81.90;;;7.19;57.80;99379.44;5097723;28;20203;-52
2023/03/09 03:39:20;;;;;;;12.20;10.07;;;4.40;81.90;;;7.21;57.02;99383.47;5094371;28;20194;-53
2023/03/09 03:41:47;;;;;;;11.20;9.53;;;4.40;81.60;;;7.24;57.46;99383.13;5094093;28;20662;-52
2023/03/09 03:44:15;;;;;;;9.50;7.90;;;4.50;81.70;;;7.28;57.06;99378.31;5093714;28;20285;-51
2023/03/09 03:46:41;;;;;;;10.97;9.53;;;4.50;81.70;;;7.28;56.95;99386.16;5109423;28;20194;-53
2023/03/09 03:49:09;;;;;;;9.97;8.87;;;4.50;81.30;;;7.31;57.56;99393.63;5114782;28;20602;-52
2023/03/09 03:51:36;;;;;;;13.13;9.80;;;4.50;81.50;;;7.32;57.32;99401.28;5114509;28;20221;-52
2023/03/09 03:54:04;;;;;;;11.87;9.93;;;4.50;81.50;;;7.33;56.87;99397.69;5113898;28;20223;-53
2023/03/09 03:56:32;;;;;;;11.10;8.63;;;4.50;81.20;;;7.34;57.08;99398.50;5116325;27;20196;-52
2023/03/09 03:58:59;;;;;;;13.17;10.07;;;4.50;81.10;;;7.36;57.29;99404.38;5109661;28;20731;-53
2023/03/09 04:01:26;;;;;;;12.40;9.50;;;4.60;81.50;;;7.35;57.09;99400.94;5093635;28;20194;-53
2023/03/09 04:03:52;;;;;;;12.00;10.17;;;4.60;81.10;;;7.33;57.02;99395.06;5093466;28;20204;-54
2023/03/09 04:06:19;;;;;;;11.73;10.00;;;4.60;80.80;;;7.32;56.90;99405.75;5104817;28;20201;-55
2023/03/09 04:08:46;;;;;;;12.50;9.37;;;4.60;80.90;;;7.35;56.84;99407.97;5114292;28;20188;-51
2023/03/09 04:11:15;;;;;;;12.53;10.03;;;4.60;81.40;;;7.38;56.75;99411.03;5114603;28;20190;-54
2023/03/09 04:13:42;;;;;;;11.33;9.60;;;4.60;81.30;;;7.43;57.07;99418.31;5123585;27;20683;-54
2023/03/09 04:16:09;;;;;;;15.33;10.23;;;4.60;81.60;;;7.46;56.88;99423.19;5123399;27;20200;-53
2023/03/09 04:18:36;;;;;;;13.40;9.60;;;4.60;81.30;;;7.48;56.64;99429.84;5114168;28;20194;-53
2023/03/09 04:21:03;;;;;;;13.17;10.37;;;4.70;81.40;;;7.49;57.02;99428.84;5114022;28;20644;-56
2023/03/09 04:23:30;;;;;;;11.27;9.30;;;4.70;81.20;;;7.49;56.92;99417.56;5113676;28;20237;-55
2023/03/09 04:26:00;;;;;;;12.07;10.00;;;4.70;81.10;;;7.46;56.52;99425.81;5105203;28;20221;-54
2023/03/09 04:28:29;;;;;;;11.10;9.23;;;4.70;80.70;;;7.39;56.53;99427.56;5093436;28;20196;-55
2023/03/09 04:30:56;;;;;;;12.07;9.93;;;4.70;80.60;;;7.36;56.51;99430.53;5093285;28;20207;-52
2023/03/09 04:33:23;;;;;;;14.23;10.40;;;4.60;80.70;;;7.31;56.90;99440.75;5096707;28;20576;-55
2023/03/09 04:35:50;;;;;;;13.50;9.97;;;4.60;80.80;;;7.20;57.40;99439.41;5104020;28;20503;-53
2023/03/09 04:38:17;;;;;;;10.97;9.57;;;4.60;80.90;;;7.16;57.27;99437.34;5117326;28;20319;-52
2023/03/09 04:40:44;;;;;;;11.00;9.53;;;4.50;81.20;;;7.13;57.46;99442.97;5133293;27;20654;-53
2023/03/09 04:43:11;;;;;;;10.70;9.23;;;4.50;81.30;;;7.09;57.93;99447.75;5133623;27;20209;-53
2023/03/09 04:45:39;;;;;;;12.60;10.60;;;4.50;81.50;;;7.02;57.96;99446.84;5112311;28;20197;-53
2023/03/09 04:48:06;;;;;;;12.27;9.93;;;4.40;81.60;;;7.00;58.31;99437.56;5097665;28;20669;-52
2023/03/09 04:50:33;;;;;;;13.07;10.10;;;4.40;81.60;;;6.97;57.94;99440.53;5098028;28;20194;-55
2023/03/09 04:53:00;;;;;;;12.93;9.70;;;4.40;81.70;;;6.99;57.97;99443.81;5096859;28;20706;-54
2023/03/09 04:55:27;;;;;;;14.47;10.37;;;4.40;82.10;;;7.00;58.63;99448.84;5099712;28;20185;-54
2023/03/09 04:57:54;;;;;;;12.97;10.03;;;4.30;82.40;;;6.98;58.70;99444.81;5117008;27;20221;-53
2023/03/09 05:00:23;;;;;;;14.17;10.67;;;4.30;82.20;;;6.94;58.41;99449.56;5117435;28;20198;-53
2023/03/09 05:02:51;;;;;;;13.10;10.50;;;4.30;82.40;;;6.87;58.31;99450.50;5117086;28;20675;-53
2023/03/09 05:05:19;;;;;;;12.47;9.37;;;4.30;82.20;;;6.85;58.55;99444.66;5114374;28;20218;-54
2023/03/09 05:07:46;;;;;;;13.50;10.57;;;4.20;82.10;;;6.84;58.37;99449.06;5096797;28;20605;-52
2023/03/09 05:10:13;;;;;;;13.53;10.60;;;4.20;82.60;;;6.86;59.06;99459.34;5096554;28;20529;-53
2023/03/09 05:12:40;;;;;;;12.23;10.57;;;4.20;83.00;;;6.92;59.15;99466.47;5098014;27;20233;-51
2023/03/09 05:15:08;;;;;;;12.40;9.53;;;4.20;83.50;;;6.99;59.10;99468.16;5137216;27;20672;-52
2023/03/09 05:17:35;;;;;;;11.80;9.80;;;4.20;83.60;;;7.04;58.64;99464.97;5117070;28;20271;-53
2023/03/09 05:20:10;;;;;;;13.83;9.90;;;4.20;83.50;;;7.06;57.81;99471.66;5116679;28;20185;-57
2023/03/09 05:22:39;;;;;;;10.97;9.47;;;4.30;83.10;;;7.08;58.25;99471.47;5095996;28;20185;-53
2023/03/09 05:25:07;;;;;;;11.43;9.30;;;4.30;83.00;;;7.07;58.64;99480.31;5096222;28;20264;-55
2023/03/09 05:27:35;;;;;;;12.90;9.13;;;4.30;82.60;;;7.03;58.38;99471.22;5116000;28;20197;-55
2023/03/09 05:30:03;;;;;;;11.10;9.57;;;4.30;82.60;;;7.04;58.05;99481.50;5116424;28;20192;-53
2023/03/09 05:32:29;;;;;;;11.83;9.67;;;4.30;82.90;;;7.06;58.74;99486.56;5115919;28;20185;-53
2023/03/09 05:34:57;;;;;;;12.03;8.63;;;4.30;83.20;;;7.10;58.23;99482.56;5116362;28;20227;-53
2023/03/09 05:37:26;;;;;;;13.30;9.27;;;4.30;83.30;;;7.13;58.93;99496.06;5098079;28;20201;-53
2023/03/09 05:39:53;;;;;;;9.63;8.60;;;4.40;83.40;;;7.15;58.76;99490.69;5095997;28;20201;-53
2023/03/09 05:42:20;;;;;;;12.53;9.77;;;4.40;83.40;;;7.14;58.32;99499.50;5096180;28;20638;-51
2023/03/09 05:44:47;;;;;;;12.23;9.73;;;4.40;83.00;;;7.12;58.33;99497.09;5095283;28;20236;-51
2023/03/09 05:47:14;;;;;;;12.50;9.90;;;4.40;83.00;;;7.12;58.44;99496.28;5113062;28;20196;-55
2023/03/09 05:49:41;;;;;;;12.40;9.90;;;4.40;82.90;;;7.11;58.43;99492.03;5116086;28;20195;-55
2023/03/09 05:52:08;;;;;;;11.97;9.00;;;4.40;82.70;;;7.08;58.48;99497.66;5115526;28;20197;-52
2023/03/09 05:54:37;;;;;;;11.40;9.30;;;4.40;82.50;;;7.04;58.25;99501.59;5116066;28;20208;-54
2023/03/09 05:57:04;;;;;;;12.73;9.77;;;4.40;82.70;;;7.01;58.64;99508.03;5115678;28;20597;-51
2023/03/09 05:59:31;;;;;;;12.53;9.70;;;4.30;82.60;;;7.02;58.38;99511.44;5116528;28;20264;-53
2023/03/09 06:02:00;;;;;;;12.87;9.63;;;4.30;82.90;;;7.02;58.72;99508.81;5117153;28;20774;-53
2023/03/09 06:04:27;;;;;;;11.60;10.13;;;4.30;83.10;;;7.00;58.16;99502.97;5115957;28;20283;-52
2023/03/09 06:06:54;;;;;;;12.40;9.47;;;4.30;83.10;;;6.96;58.60;99504.31;5101901;28;20202;-52
2023/03/09 06:09:21;;;;;;;11.80;8.60;;;4.40;83.20;;;6.97;59.40;99505.94;5096217;28;20661;-51
2023/03/09 06:11:50;;;;;;;12.13;9.43;;;4.30;83.40;;;6.94;59.04;99508.94;5096487;28;20331;-53
2023/03/09 06:14:17;;;;;;;11.93;9.53;;;4.30;83.10;;;6.95;59.22;99519.19;5109983;28;20214;-52
2023/03/09 06:16:44;;;;;;;11.70;9.10;;;4.30;83.40;;;6.95;58.58;99531.47;5115238;28;20217;-52
2023/03/09 06:19:12;;;;;;;11.37;9.67;;;4.30;83.20;;;6.89;58.74;99529.59;5117266;28;20190;-52
2023/03/09 06:21:39;;;;;;;13.40;9.77;;;4.30;82.90;;;6.86;59.26;99530.75;5117453;28;20204;-53
2023/03/09 06:24:08;;;;;;;12.90;9.80;;;4.20;83.10;;;6.89;59.34;99543.47;5099727;28;20216;-55
2023/03/09 06:26:35;;;;;;;13.50;9.77;;;4.20;83.50;;;6.92;58.64;99543.09;5097005;28;20279;-53
2023/03/09 06:29:03;;;;;;;10.83;9.13;;;4.30;83.80;;;6.98;58.96;99538.94;5095964;28;20228;-51
2023/03/09 06:31:32;;;;;;;9.27;7.57;;;4.30;84.00;;;7.02;58.56;99545.44;5096357;28;20202;-53
2023/03/09 06:33:59;;;;;;;9.83;8.03;;;4.30;83.80;;;7.08;58.75;99539.50;5110152;28;20656;-55
2023/03/09 06:36:26;;;;;;;12.63;9.53;;;4.40;83.80;;;7.11;59.08;99539.94;5115265;28;20184;-51
2023/03/09 06:38:53;;;;;;;10.47;8.47;;;4.30;83.60;;;7.14;58.71;99557.06;5115757;28;20183;-53
2023/03/09 06:41:29;;;;;;;10.67;8.23;;;4.40;83.50;;;7.16;57.94;99562.94;5114727;28;20196;-52
2023/03/09 06:43:56;;;;;;;11.27;9.03;;;4.40;83.30;;;7.18;58.68;99577.44;5112780;28;20221;-55
2023/03/09 06:46:24;;;;;;;14.00;10.53;;;4.40;83.20;;;7.16;58.36;99591.69;5114942;28;20279;-54
2023/03/09 06:48:51;;;;;;;13.33;10.10;;;4.40;82.80;;;7.15;58.35;99593.53;5115596;27;20198;-55
2023/03/09 06:51:19;;;;;;;11.17;8.47;;;4.40;83.20;;;7.20;58.72;99601.63;5113930;28;20196;-54
2023/03/09 06:53:46;;;;;;;10.77;8.30;;;4.50;83.40;;;7.19;58.02;99594.78;5101172;28;20209;-53
2023/03/09 06:56:13;;;;;;;9.37;8.23;;;4.50;82.90;;;7.19;58.42;99592.16;5093033;28;20200;-54
2023/03/09 06:58:40;;;;;;;8.87;7.20;;;4.50;82.80;;;7.17;58.24;99595.97;5094122;28;20187;-56
2023/03/09 07:01:10;;;;;;;12.43;8.60;;;4.50;82.70;;;7.17;58.65;99598.56;5094473;28;20204;-54
2023/03/09 07:03:40;;;;;;;10.47;7.60;;;4.50;82.90;;;7.20;58.03;99611.31;5105769;28;20306;-54
2023/03/09 07:06:07;;;;;;;10.93;8.47;;;4.50;82.90;;;7.24;58.60;99609.94;5114516;28;20240;-54
2023/03/09 07:08:34;;;;;;;9.93;7.93;;;4.50;82.90;;;7.28;58.43;99614.63;5115290;28;20790;-55
2023/03/09 07:11:01;;;;;;;9.70;7.50;;;4.50;83.10;;;7.35;58.26;99620.75;5114696;28;20196;-52
2023/03/09 07:13:29;;;;;;;10.27;7.77;;;4.50;83.20;;;7.44;58.65;99624.91;5111871;27;20393;-53
2023/03/09 07:15:56;;;;;;;9.60;8.33;;;4.60;83.80;;;7.50;57.23;99626.00;5114155;28;20244;-55
2023/03/09 07:18:23;;;;;;;8.87;7.60;;;4.60;82.60;;;7.47;57.80;99634.19;5114721;27;20593;-54
2023/03/09 07:20:51;;;;;;;9.40;7.57;;;4.70;82.10;;;7.46;57.60;99632.59;5113094;28;20204;-54
2023/03/09 07:23:18;;;;;;;11.30;8.27;;;4.70;82.10;;;7.50;57.46;99629.41;5114719;28;20207;-54
2023/03/09 07:25:46;;;;;;;11.50;8.53;;;4.70;82.50;;;7.59;57.85;99637.97;5114487;28;20197;-53
2023/03/09 07:28:13;;;;;;;10.47;8.63;;;4.70;82.60;;;7.62;57.35;99636.81;5114633;28;20194;-56
2023/03/09 07:30:40;;;;;;;13.63;8.43;;;4.80;82.00;;;7.64;57.67;99632.19;5104769;28;20202;-55
2023/03/09 07:33:08;;;;;;;9.40;7.57;;;4.80;82.20;;;7.67;57.58;99637.88;5095447;28;20293;-52
2023/03/09 07:35:38;;;;;;;9.70;7.83;;;4.80;82.00;;;7.68;56.76;99642.13;5095322;28;20209;-52
2023/03/09 07:38:06;;;;;;;9.90;7.67;;;4.80;81.50;;;7.72;57.63;99643.38;5094985;28;20344;-51
2023/03/09 07:40:33;;;;;;;12.57;9.30;;;4.90;82.10;;;7.78;57.09;99637.41;5093877;28;20191;-52
2023/03/09 07:43:00;;;;;;;11.60;8.47;;;4.90;82.20;;;7.80;57.11;99643.28;5107181;28;20228;-52
2023/03/09 07:45:28;;;;;;;9.60;7.50;;;4.90;81.70;;;7.78;56.57;99636.59;5114090;28;20197;-51
2023/03/09 07:47:55;;;;;;;9.03;7.40;;;4.90;81.20;;;7.76;56.86;99644.63;5115133;28;20629;-52
2023/03/09 07:50:23;;;;;;;10.07;7.87;;;5.00;81.30;;;7.81;57.15;99652.75;5114989;28;20538;-53
2023/03/09 07:52:53;;;;;;;9.53;8.33;;;4.90;82.00;;;7.86;57.05;99650.41;5114567;28;20300;-53
2023/03/09 07:55:23;;;;;;;9.83;8.23;;;5.00;81.90;;;7.89;56.58;99650.03;5114921;28;20213;-54
2023/03/09 07:57:50;;;;;;;16.67;11.57;;;5.00;81.50;;;7.88;56.82;99648.41;5095515;28;20192;-53
2023/03/09 08:00:22;;;;;;;10.17;7.90;;;5.00;81.40;;;7.90;57.16;99651.66;5094131;28;20513;-51
2023/03/09 08:02:49;;;;;;;12.27;9.17;;;5.10;81.60;;;8.00;56.89;99657.41;5093878;27;20229;-53
2023/03/09 08:05:18;;;;;;;18.67;16.70;;;5.10;81.90;;;8.12;56.99;99666.44;5093638;28;20645;-52
2023/03/09 08:07:46;;;;;;;10.90;9.10;;;5.10;82.00;;;8.25;56.07;99678.06;5105666;28;20223;-53
2023/03/09 08:10:14;;;;;;;12.33;8.97;;;5.20;82.10;;;8.27;55.95;99673.47;5109436;28;20205;-53
2023/03/09 08:12:48;;;;;;;10.83;8.73;;;5.30;81.40;;;8.32;56.14;99676.34;5113173;27;20610;-54
2023/03/09 08:15:18;;;;;;;11.87;9.10;;;5.30;81.30;;;8.33;55.82;99677.94;5105587;28;20291;-52
2023/03/09 08:17:45;;;;;;;11.47;8.73;;;5.40;80.70;;;8.35;55.62;99686.44;5113065;28;20653;-52
2023/03/09 08:20:15;;;;;;;11.80;8.13;;;5.40;80.60;;;8.32;55.42;99686.81;5119481;28;20189;-53
2023/03/09 08:22:43;;;;;;;8.87;7.83;;;5.40;80.30;;;8.28;55.62;99693.41;5102179;28;20220;-53
2023/03/09 08:25:10;;;;;;;8.43;7.50;;;5.40;79.90;;;8.30;55.91;99679.13;5106486;28;20716;-53
2023/03/09 08:27:39;;;;;;;9.47;7.37;;;5.50;80.20;;;8.35;55.73;99681.19;5097464;28;20220;-54
2023/03/09 08:30:11;;;;;;;8.70;7.10;;;5.40;80.10;;;8.39;55.29;99682.47;5098587;28;20632;-53
2023/03/09 08:32:39;;;;;;;9.37;7.37;;;5.50;79.90;;;8.42;55.41;99679.44;5097024;28;20274;-54
2023/03/09 08:35:07;;;;;;;7.50;6.70;;;5.50;79.90;;;8.51;55.47;99681.75;5096560;28;20349;-54
2023/03/09 08:37:34;;;;;;;10.33;7.70;;;5.50;80.20;;;8.66;55.35;99684.31;5111049;28;20200;-52
2023/03/09 08:40:02;;;;;;;7.83;7.03;;;5.60;80.40;;;8.74;54.74;99692.88;5117503;27;20184;-54
2023/03/09 08:42:28;;;;;;;10.23;7.60;;;5.60;80.10;;;8.78;54.79;99691.50;5116659;28;20590;-52
2023/03/09 08:44:55;;;;;;;8.97;7.30;;;5.70;79.80;;;8.86;54.67;99690.56;5117475;28;20191;-53
2023/03/09 08:47:24;;;;;;;7.60;6.40;;;5.70;80.10;;;8.93;54.58;99696.66;5099640;28;20230;-52
2023/03/09 08:49:51;;;;;;;9.03;6.73;;;5.80;79.60;;;8.89;53.46;99700.66;5097925;28;20682;-52
2023/03/09 08:52:18;;;;;;;7.40;6.60;;;5.80;77.90;;;8.87;53.64;99701.88;5101025;28;20190;-53
2023/03/09 08:54:46;;;;;;;7.20;6.10;;;5.90;77.80;;;8.91;53.69;99706.56;5098136;28;20254;-53
2023/03/09 08:57:14;;;;;;;8.97;6.97;;;5.90;77.70;;;8.89;53.10;99711.16;5097435;28;20291;-52
2023/03/09 08:59:41;;;;;;;6.87;6.17;;;5.90;77.00;;;8.92;53.25;99709.97;5097639;28;20189;-53
2023/03/09 09:02:13;;;;;;;8.07;7.10;;;5.90;77.40;;;9.00;53.15;99723.78;5096903;28;20246;-52
2023/03/09 09:04:43;;;;;;;8.10;6.73;;;6.00;77.70;;;9.06;52.87;99723.00;5117038;28;20212;-53
2023/03/09 09:07:11;;;;;;;6.13;5.50;;;6.00;76.90;;;9.17;53.09;99724.31;5116465;28;20206;-51
2023/03/09 09:09:38;;;;;;;14.10;9.43;;;6.00;77.10;;;9.27;52.79;99730.84;5109148;27;20206;-51
2023/03/09 09:12:07;;;;;;;7.57;6.33;;;6.10;77.50;;;9.37;52.79;99730.50;5096855;28;20203;-56
2023/03/09 09:14:37;;;;;;;7.00;6.17;;;6.10;77.50;;;9.42;52.44;99736.81;5115953;27;20240;-52
2023/03/09 09:17:08;;;;;;;5.90;5.30;;;6.20;76.90;;;9.43;52.17;99735.81;5106490;28;20204;-53
2023/03/09 09:19:36;;;;;;;8.43;6.20;;;6.30;76.60;;;9.44;52.56;99741.88;5095506;28;20192;-53
2023/03/09 09:22:06;;;;;;;6.17;5.40;;;6.30;76.60;;;9.47;51.97;99741.50;5112990;28;20210;-52
2023/03/09 09:24:38;;;;;;;8.17;5.67;;;6.40;76.40;;;9.45;51.81;99749.56;5112427;28;20572;-55
2023/03/09 09:27:07;;;;;;;8.63;5.33;;;6.40;75.20;;;9.47;51.63;99759.88;5118737;28;20258;-52
2023/03/09 09:29:36;;;;;;;7.40;5.00;;;6.40;75.60;;;9.44;50.57;99753.19;5118409;28;20226;-54
2023/03/09 09:32:05;;;;;;;7.90;6.23;;;6.40;74.60;;;9.42;51.25;99757.81;5096701;28;20681;-54
2023/03/09 09:34:34;;;;;;;6.33;5.47;;;6.40;74.80;;;9.41;51.39;99769.31;5094887;28;20220;-54
2023/03/09 09:37:07;;;;;;;5.93;5.27;;;6.40;74.60;;;9.45;51.02;99770.59;5096025;28;20207;-51
2023/03/09 09:39:34;;;;;;;7.27;6.10;;;6.40;74.80;;;9.47;50.84;99781.69;5112134;28;20543;-53
2023/03/09 09:42:10;;;;;;;6.60;5.80;;;6.40;74.50;;;9.48;50.70;99790.41;5116437;28;20195;-52
2023/03/09 09:44:42;;;;;;;6.30;5.67;;;6.40;73.90;;;9.50;50.90;99789.22;5111609;27;20210;-55
2023/03/09 09:47:16;;;;;;;15.03;11.33;;;6.40;74.30;;;9.52;50.73;99787.19;5115538;27;20217;-56
2023/03/09 09:49:47;;;;;;;9.13;6.43;;;6.50;74.40;;;9.55;50.54;99791.25;5116616;27;20196;-52
2023/03/09 09:52:31;;;;;;;6.93;6.23;;;6.50;74.10;;;9.52;50.59;99789.81;5116061;28;20620;-54
2023/03/09 09:55:12;;;;;;;7.07;4.93;;;6.50;73.70;;;9.49;50.21;99792.81;5095026;28;20226;-54
2023/03/09 09:57:43;;;;;;;6.00;5.40;;;6.50;73.40;;;9.47;50.13;99794.03;5096927;28;20201;-53
2023/03/09 10:00:17;;;;;;;5.47;4.83;;;6.50;72.80;;;9.48;50.55;99798.28;5106309;27;20192;-56
2023/03/09 10:03:06;;;;;;;6.00;5.40;;;6.50;73.80;;;9.41;50.26;99789.53;5108741;27;20219;-55
2023/03/09 10:05:44;;;;;;;7.83;5.73;;;6.50;72.80;;;9.35;50.45;99785.03;5118926;27;20273;-52
2023/03/09 10:08:33;;;;;;;6.60;4.97;;;6.50;73.10;;;9.26;50.65;99787.00;5108834;27;20197;-52
2023/03/09 10:11:12;;;;;;;6.50;5.40;;;6.40;72.70;;;9.24;50.07;99804.75;5110654;27;20676;-52
2023/03/09 10:13:45;;;;;;;7.17;5.47;;;6.40;72.80;;;9.26;50.69;99800.13;5104933;27;20295;-52
2023/03/09 10:16:18;;;;;;;8.07;6.50;;;6.40;72.80;;;9.36;50.56;99805.06;5112319;27;20329;-57
2023/03/09 10:18:53;;;;;;;6.00;5.03;;;6.40;73.50;;;9.40;50.61;99804.47;5104369;27;20203;-56
2023/03/09 10:21:28;;;;;;;6.30;5.03;;;6.40;73.70;;;9.45;50.84;99807.34;5105045;27;20195;-55
2023/03/09 10:24:10;;;;;;;10.03;6.10;;;6.40;73.90;;;9.51;50.65;99808.38;5109810;27;20215;-55
2023/03/09 10:26:47;;;;;;;9.23;7.57;;;6.40;74.20;;;9.57;50.92;99810.25;5107569;27;20209;-57
2023/03/09 10:29:25;;;;;;;7.10;6.13;;;6.50;74.20;;;9.54;50.33;99814.09;5104597;27;20229;-54
2023/03/09 10:32:02;;;;;;;7.80;6.37;;;6.50;73.90;;;9.53;50.42;99819.53;5107496;28;20659;-52
2023/03/09 10:34:43;;;;;;;6.67;5.97;;;6.50;73.50;;;9.52;50.99;99829.22;5111057;27;20225;-54
2023/03/09 10:37:20;;;;;;;6.00;4.80;;;6.50;73.60;;;9.54;50.19;99837.72;5113761;27;20221;-53